createdAt,value
2022-11-06T00:00:57.643Z,22.10
2022-11-06T00:03:26.891Z,22.00
2022-11-06T00:06:15.260Z,22.00
2022-11-06T00:08:44.584Z,22.00
2022-11-06T00:11:16.509Z,22.10
2022-11-06T00:13:45.988Z,22.10
2022-11-06T00:16:16.046Z,22.10
2022-11-06T00:18:44.760Z,22.10
2022-11-06T00:21:17.558Z,22.20
2022-11-06T00:23:47.162Z,22.20
2022-11-06T00:26:19.140Z,22.20
2022-11-06T00:28:48.676Z,22.20
2022-11-06T00:31:20.297Z,22.20
2022-11-06T00:33:49.564Z,22.20
2022-11-06T00:36:20.947Z,22.20
2022-11-06T00:38:53.135Z,22.30
2022-11-06T00:41:22.608Z,22.30
2022-11-06T00:43:53.554Z,22.30
2022-11-06T00:46:22.647Z,22.40
2022-11-06T00:48:51.578Z,22.40
2022-11-06T00:51:30.835Z,22.50
2022-11-06T00:54:03.487Z,22.50
2022-11-06T00:56:33.348Z,22.50
2022-11-06T00:59:08.865Z,22.60
2022-11-06T01:01:41.269Z,22.60
2022-11-06T01:04:14.671Z,22.60
2022-11-06T01:06:46.618Z,22.60
2022-11-06T01:09:18.580Z,22.70
2022-11-06T01:14:41.330Z,22.80
2022-11-06T01:17:10.387Z,22.80
2022-11-06T01:19:39.374Z,22.90
2022-11-06T01:22:13.288Z,23.00
2022-11-06T01:24:44.458Z,23.00
2022-11-06T01:27:25.976Z,23.10
2022-11-06T01:29:56.587Z,23.10
2022-11-06T01:32:25.536Z,23.20
2022-11-06T01:34:56.409Z,23.30
2022-11-06T01:37:25.252Z,23.30
2022-11-06T01:39:53.998Z,23.30
2022-11-06T01:42:23.235Z,23.30
2022-11-06T01:45:30.925Z,23.40
2022-11-06T01:47:59.899Z,23.40
2022-11-06T01:50:28.984Z,23.40
2022-11-06T01:53:04.791Z,23.50
2022-11-06T01:55:39.284Z,23.50
2022-11-06T01:58:11.244Z,23.60
2022-11-06T02:00:40.363Z,23.70
2022-11-06T02:03:10.285Z,23.70
2022-11-06T02:05:39.678Z,23.80
2022-11-06T02:08:11.716Z,23.80
2022-11-06T02:10:40.940Z,23.90
2022-11-06T02:13:37.619Z,24.00
2022-11-06T02:16:13.272Z,24.00
2022-11-06T02:18:46.454Z,24.00
2022-11-06T02:21:35.264Z,24.10
2022-11-06T02:24:08.481Z,24.10
2022-11-06T02:27:16.397Z,24.20
2022-11-06T02:30:04.145Z,24.20
2022-11-06T02:32:57.914Z,24.40
2022-11-06T02:35:30.618Z,24.40
2022-11-06T02:38:08.789Z,24.50
2022-11-06T02:40:43.562Z,24.50
2022-11-06T02:43:12.441Z,24.60
2022-11-06T02:45:50.286Z,24.60
2022-11-06T02:48:25.474Z,24.60
2022-11-06T02:50:57.843Z,24.70
2022-11-06T02:53:28.707Z,24.70
2022-11-06T02:56:06.744Z,24.70
2022-11-06T02:58:49.083Z,24.80
2022-11-06T03:01:26.311Z,24.80
2022-11-06T03:04:00.730Z,24.90
2022-11-06T03:06:37.508Z,25.00
2022-11-06T03:09:11.379Z,25.00
2022-11-06T03:11:40.627Z,25.00
2022-11-06T03:14:33.534Z,25.00
2022-11-06T03:17:11.471Z,25.10
2022-11-06T03:19:43.793Z,25.10
2022-11-06T03:22:36.315Z,25.20
2022-11-06T03:25:18.567Z,25.20
2022-11-06T03:27:55.762Z,25.30
2022-11-06T03:30:24.712Z,25.30
2022-11-06T03:32:58.721Z,25.30
2022-11-06T03:35:48.881Z,25.40
2022-11-06T03:38:28.284Z,25.40
2022-11-06T03:41:02.503Z,25.50
2022-11-06T03:43:38.108Z,25.50
2022-11-06T03:46:19.166Z,25.60
2022-11-06T03:48:53.640Z,25.60
2022-11-06T03:51:31.492Z,25.60
2022-11-06T03:54:09.338Z,25.70
2022-11-06T03:56:45.044Z,25.80
2022-11-06T03:59:19.565Z,25.90
2022-11-06T04:01:50.048Z,25.90
2022-11-06T04:04:31.925Z,26.00
2022-11-06T04:07:11.073Z,26.10
2022-11-06T04:10:03.366Z,26.10
2022-11-06T04:12:54.129Z,26.20
2022-11-06T04:15:23.930Z,26.20
2022-11-06T04:17:52.805Z,26.20
2022-11-06T04:20:45.097Z,26.20
2022-11-06T04:23:25.135Z,26.30
2022-11-06T04:26:22.211Z,26.30
2022-11-06T04:29:04.145Z,26.40
2022-11-06T04:32:11.881Z,26.40
2022-11-06T04:37:56.211Z,26.50
2022-11-06T04:40:37.722Z,26.60
2022-11-06T04:43:34.093Z,26.60
2022-11-06T04:46:04.891Z,26.60
2022-11-06T04:48:34.144Z,26.60
2022-11-06T04:51:07.348Z,26.70
2022-11-06T04:53:37.775Z,26.70
2022-11-06T04:56:20.117Z,26.70
2022-11-06T04:58:50.011Z,26.80
2022-11-06T05:01:19.522Z,26.80
2022-11-06T05:03:48.993Z,26.80
2022-11-06T05:06:19.994Z,26.80
2022-11-06T05:08:48.757Z,26.90
2022-11-06T05:11:17.509Z,27.00
2022-11-06T05:13:46.292Z,27.00
2022-11-06T05:16:15.188Z,27.00
2022-11-06T05:18:45.709Z,27.00
2022-11-06T05:21:34.755Z,27.10
2022-11-06T05:24:03.586Z,27.10
2022-11-06T05:26:33.351Z,27.20
2022-11-06T05:29:03.286Z,27.20
2022-11-06T05:31:32.056Z,27.30
2022-11-06T05:34:00.802Z,27.30
2022-11-06T05:36:29.640Z,27.30
2022-11-06T05:38:58.441Z,27.30
2022-11-06T05:41:27.259Z,27.40
2022-11-06T05:43:56.028Z,27.30
2022-11-06T05:46:46.931Z,27.40
2022-11-06T05:49:14.824Z,27.40
2022-11-06T05:51:44.306Z,27.50
2022-11-06T05:54:13.646Z,27.40
2022-11-06T05:56:42.492Z,27.50
2022-11-06T05:59:11.286Z,27.50
2022-11-06T06:01:40.249Z,27.50
2022-11-06T06:04:09.074Z,27.50
2022-11-06T06:06:39.290Z,27.50
2022-11-06T06:09:08.098Z,27.50
2022-11-06T06:11:36.927Z,27.60
2022-11-06T06:14:05.674Z,27.70
2022-11-06T06:16:34.419Z,27.70
2022-11-06T06:19:04.171Z,27.70
2022-11-06T06:21:32.983Z,27.70
2022-11-06T06:24:07.259Z,27.70
2022-11-06T06:26:36.083Z,27.70
2022-11-06T06:29:05.307Z,27.80
2022-11-06T06:31:34.066Z,27.80
2022-11-06T06:34:02.845Z,27.80
2022-11-06T06:36:31.552Z,27.90
2022-11-06T06:39:00.302Z,27.80
2022-11-06T06:41:29.066Z,27.90
2022-11-06T06:43:57.839Z,27.90
2022-11-06T06:46:26.576Z,27.90
2022-11-06T06:48:55.379Z,28.00
2022-11-06T06:51:24.396Z,27.90
2022-11-06T06:53:53.521Z,27.90
2022-11-06T06:56:22.447Z,28.00
2022-11-06T06:58:54.370Z,27.90
2022-11-06T07:01:23.317Z,28.00
2022-11-06T07:03:52.258Z,28.00
2022-11-06T07:06:21.799Z,28.00
2022-11-06T07:08:50.507Z,28.00
2022-11-06T07:11:19.789Z,28.00
2022-11-06T07:13:48.705Z,28.00
2022-11-06T07:16:17.553Z,28.10
2022-11-06T07:18:46.614Z,28.10
2022-11-06T07:21:15.742Z,28.10
2022-11-06T07:23:44.851Z,28.10
2022-11-06T07:26:13.588Z,28.10
2022-11-06T07:28:42.478Z,28.10
2022-11-06T07:31:13.872Z,28.20
2022-11-06T07:33:42.666Z,28.20
2022-11-06T07:36:14.087Z,28.20
2022-11-06T07:38:44.567Z,28.30
2022-11-06T07:41:16.244Z,28.30
2022-11-06T07:43:46.086Z,28.30
2022-11-06T07:46:14.933Z,28.30
2022-11-06T07:48:43.823Z,28.30
2022-11-06T07:51:13.466Z,28.30
2022-11-06T07:53:42.526Z,28.40
2022-11-06T07:56:11.279Z,28.40
2022-11-06T07:58:40.555Z,28.40
2022-11-06T08:01:18.614Z,28.40
2022-11-06T08:03:47.988Z,28.40
2022-11-06T08:06:16.678Z,28.40
2022-11-06T08:08:45.948Z,28.40
2022-11-06T08:11:16.100Z,28.40
2022-11-06T08:13:45.777Z,28.50
2022-11-06T08:16:16.278Z,28.50
2022-11-06T08:18:45.796Z,28.50
2022-11-06T08:21:14.533Z,28.50
2022-11-06T08:23:43.289Z,28.50
2022-11-06T08:26:13.585Z,28.50
2022-11-06T08:28:42.592Z,28.50
2022-11-06T08:31:11.693Z,28.50
2022-11-06T08:33:41.373Z,28.50
2022-11-06T08:36:11.422Z,28.50
2022-11-06T08:38:41.544Z,28.50
2022-11-06T08:41:12.535Z,28.50
2022-11-06T08:43:41.468Z,28.40
2022-11-06T08:46:11.835Z,28.40
2022-11-06T08:48:41.702Z,28.50
2022-11-06T08:51:10.457Z,28.50
2022-11-06T08:53:39.249Z,28.40
2022-11-06T08:56:08.668Z,28.40
2022-11-06T08:58:37.537Z,28.40
2022-11-06T09:01:06.394Z,28.40
2022-11-06T09:03:35.244Z,28.40
2022-11-06T09:06:06.004Z,28.30
2022-11-06T09:08:35.050Z,28.40
2022-11-06T09:11:08.820Z,28.30
2022-11-06T09:13:37.643Z,28.40
2022-11-06T09:16:12.705Z,28.30
2022-11-06T09:18:43.254Z,28.30
2022-11-06T09:21:12.254Z,28.30
2022-11-06T09:23:41.062Z,28.30
2022-11-06T09:26:09.870Z,28.20
2022-11-06T09:28:38.599Z,28.20
2022-11-06T09:31:07.916Z,28.10
2022-11-06T09:33:37.398Z,28.10
2022-11-06T09:36:07.558Z,28.10
2022-11-06T09:38:36.236Z,28.10
2022-11-06T09:41:05.688Z,28.10
2022-11-06T09:44:13.580Z,28.00
2022-11-06T09:46:46.660Z,28.00
2022-11-06T09:49:23.142Z,28.00
2022-11-06T09:52:04.890Z,27.90
2022-11-06T09:55:01.270Z,27.90
2022-11-06T09:57:37.089Z,27.90
2022-11-06T10:00:08.694Z,27.90
2022-11-06T10:02:45.605Z,27.80
2022-11-06T10:05:31.771Z,27.80
2022-11-06T10:08:14.766Z,27.70
2022-11-06T10:10:56.366Z,27.70
2022-11-06T10:13:38.824Z,27.70
2022-11-06T10:16:12.923Z,27.70
2022-11-06T10:18:51.796Z,27.60
2022-11-06T10:21:21.412Z,27.50
2022-11-06T10:23:59.263Z,27.50
2022-11-06T10:26:50.017Z,27.40
2022-11-06T10:29:35.009Z,27.30
2022-11-06T10:32:05.645Z,27.30
2022-11-06T10:34:48.395Z,27.20
2022-11-06T10:37:31.684Z,27.10
2022-11-06T10:40:01.784Z,27.00
2022-11-06T10:42:38.456Z,27.00
2022-11-06T10:45:16.423Z,26.90
2022-11-06T10:47:53.452Z,26.90
2022-11-06T10:50:22.639Z,26.80
2022-11-06T10:53:18.915Z,26.70
2022-11-06T10:56:15.789Z,26.70
2022-11-06T10:58:53.712Z,26.70
2022-11-06T11:01:22.700Z,26.60
2022-11-06T11:03:52.677Z,26.50
2022-11-06T11:06:22.171Z,26.50
2022-11-06T11:08:52.436Z,26.40
2022-11-06T11:11:25.794Z,26.40
2022-11-06T11:14:15.199Z,26.30
2022-11-06T11:16:46.497Z,26.20
2022-11-06T11:19:36.475Z,26.20
2022-11-06T11:22:22.783Z,26.20
2022-11-06T11:25:25.592Z,26.20
2022-11-06T11:27:54.616Z,26.10
2022-11-06T11:30:27.394Z,26.10
2022-11-06T11:32:55.732Z,26.10
2022-11-06T11:35:30.419Z,26.00
2022-11-06T11:38:12.736Z,26.00
2022-11-06T11:40:42.189Z,26.00
2022-11-06T11:43:24.704Z,26.00
2022-11-06T11:46:13.746Z,25.90
2022-11-06T11:48:59.580Z,25.90
2022-11-06T11:51:31.732Z,25.90
2022-11-06T11:54:05.140Z,25.80
2022-11-06T11:57:02.790Z,25.80
2022-11-06T11:59:30.710Z,25.80
2022-11-06T12:02:05.681Z,25.80
2022-11-06T12:04:42.652Z,25.80
2022-11-06T12:07:27.231Z,25.70
2022-11-06T12:09:56.241Z,25.70
2022-11-06T12:12:27.651Z,25.70
2022-11-06T12:15:20.641Z,25.60
2022-11-06T12:18:11.823Z,25.60
2022-11-06T12:20:46.244Z,25.60
2022-11-06T12:23:21.436Z,25.60
2022-11-06T12:26:13.641Z,25.50
2022-11-06T12:28:45.590Z,25.50
2022-11-06T12:31:28.541Z,25.50
2022-11-06T12:34:07.044Z,25.50
2022-11-06T12:36:44.863Z,25.40
2022-11-06T12:39:23.235Z,25.40
2022-11-06T12:41:54.574Z,25.40
2022-11-06T12:44:24.184Z,25.40
2022-11-06T12:47:26.269Z,25.30
2022-11-06T12:50:16.409Z,25.30
2022-11-06T12:53:06.582Z,25.30
2022-11-06T12:55:39.109Z,25.30
2022-11-06T12:58:33.202Z,25.30
2022-11-06T13:01:09.916Z,25.20
2022-11-06T13:03:59.257Z,25.20
2022-11-06T13:06:56.737Z,25.20
2022-11-06T13:09:46.038Z,25.10
2022-11-06T13:12:29.191Z,25.10
2022-11-06T13:15:25.608Z,25.10
2022-11-06T13:18:09.778Z,25.10
2022-11-06T13:20:59.637Z,25.10
2022-11-06T13:23:35.687Z,25.10
2022-11-06T13:26:17.634Z,25.10
2022-11-06T13:28:58.742Z,25.00
2022-11-06T13:31:37.331Z,25.00
2022-11-06T13:34:07.801Z,25.00
2022-11-06T13:36:38.779Z,25.00
2022-11-06T13:39:14.658Z,25.00
2022-11-06T13:41:44.089Z,24.90
2022-11-06T13:44:17.966Z,25.00
2022-11-06T13:46:51.357Z,24.90
2022-11-06T13:49:47.934Z,24.90
2022-11-06T13:52:25.054Z,24.90
2022-11-06T13:55:33.178Z,24.90
2022-11-06T13:58:23.948Z,24.90
2022-11-06T14:01:32.095Z,24.90
2022-11-06T14:04:24.962Z,24.80
2022-11-06T14:06:58.351Z,24.80
2022-11-06T14:09:31.775Z,24.80
2022-11-06T14:12:04.654Z,24.80
2022-11-06T14:14:34.675Z,24.80
2022-11-06T14:17:20.049Z,24.70
2022-11-06T14:19:53.213Z,24.70
2022-11-06T14:22:39.263Z,24.70
2022-11-06T14:25:32.492Z,24.70
2022-11-06T14:28:02.553Z,24.70
2022-11-06T14:31:05.790Z,24.70
2022-11-06T14:33:44.079Z,24.70
2022-11-06T14:36:37.165Z,24.70
2022-11-06T14:39:11.965Z,24.60
2022-11-06T14:41:43.319Z,24.70
2022-11-06T14:44:33.926Z,24.60
2022-11-06T14:47:06.741Z,24.60
2022-11-06T14:49:36.698Z,24.60
2022-11-06T14:52:15.103Z,24.60
2022-11-06T14:54:54.807Z,24.60
2022-11-06T14:57:46.497Z,24.60
2022-11-06T15:00:35.295Z,24.50
2022-11-06T15:03:06.902Z,24.50
2022-11-06T15:05:42.386Z,24.50
2022-11-06T15:08:11.878Z,24.50
2022-11-06T15:10:49.827Z,24.40
2022-11-06T15:13:19.448Z,24.40
2022-11-06T15:15:55.394Z,24.40
2022-11-06T15:18:26.443Z,24.40
2022-11-06T15:20:58.575Z,24.40
2022-11-06T15:23:30.442Z,24.40
2022-11-06T15:26:05.046Z,24.40
2022-11-06T15:28:42.901Z,24.40
2022-11-06T15:31:17.547Z,24.40
2022-11-06T15:33:58.311Z,24.30
2022-11-06T15:36:29.468Z,24.30
2022-11-06T15:38:58.195Z,24.30
2022-11-06T15:41:28.327Z,24.30
2022-11-06T15:43:59.091Z,24.20
2022-11-06T15:46:30.171Z,24.20
2022-11-06T15:49:20.113Z,24.20
2022-11-06T15:52:02.272Z,24.20
2022-11-06T15:54:36.293Z,24.20
2022-11-06T15:57:14.864Z,24.20
2022-11-06T15:59:43.574Z,24.20
2022-11-06T16:02:20.244Z,24.20
2022-11-06T16:04:50.718Z,24.20
2022-11-06T16:07:22.138Z,24.20
2022-11-06T16:09:52.766Z,24.20
2022-11-06T16:12:21.971Z,24.20
2022-11-06T16:14:50.842Z,24.20
2022-11-06T16:17:26.455Z,24.20
2022-11-06T16:19:59.322Z,24.10
2022-11-06T16:22:32.715Z,24.10
2022-11-06T16:25:04.585Z,24.10
2022-11-06T16:27:42.837Z,24.10
2022-11-06T16:30:25.265Z,24.10
2022-11-06T16:32:54.874Z,24.10
2022-11-06T16:35:40.368Z,24.10
2022-11-06T16:38:46.099Z,24.00
2022-11-06T16:41:37.148Z,24.00
2022-11-06T16:44:30.794Z,24.00
2022-11-06T16:47:10.001Z,23.90
2022-11-06T16:49:43.388Z,23.90
2022-11-06T16:52:39.879Z,23.90
2022-11-06T16:55:26.621Z,23.90
2022-11-06T16:57:59.808Z,23.90
2022-11-06T17:03:49.945Z,23.80
2022-11-06T17:06:36.506Z,23.80
2022-11-06T17:09:09.724Z,23.80
2022-11-06T17:11:39.647Z,23.80
2022-11-06T17:14:19.960Z,23.70
2022-11-06T17:16:52.737Z,23.70
2022-11-06T17:19:22.957Z,23.60
2022-11-06T17:21:52.188Z,23.60
2022-11-06T17:24:37.589Z,23.60
2022-11-06T17:27:07.354Z,23.60
2022-11-06T17:29:37.278Z,23.60
2022-11-06T17:32:06.351Z,23.60
2022-11-06T17:34:35.177Z,23.50
2022-11-06T17:37:03.972Z,23.60
2022-11-06T17:39:33.988Z,23.50
2022-11-06T17:42:02.718Z,23.50
2022-11-06T17:44:31.477Z,23.50
2022-11-06T17:47:00.394Z,23.50
2022-11-06T17:49:29.730Z,23.40
2022-11-06T17:52:01.077Z,23.40
2022-11-06T17:54:33.659Z,23.40
2022-11-06T17:57:04.957Z,23.40
2022-11-06T17:59:34.505Z,23.40
2022-11-06T18:02:03.538Z,23.40
2022-11-06T18:04:35.187Z,23.40
2022-11-06T18:07:03.904Z,23.40
2022-11-06T18:09:32.681Z,23.40
2022-11-06T18:12:01.563Z,23.30
2022-11-06T18:14:30.290Z,23.40
2022-11-06T18:16:59.057Z,23.40
2022-11-06T18:19:28.249Z,23.30
2022-11-06T18:21:59.911Z,23.30
2022-11-06T18:24:31.194Z,23.30
2022-11-06T18:27:00.317Z,23.30
2022-11-06T18:29:29.062Z,23.30
2022-11-06T18:31:57.773Z,23.30
2022-11-06T18:34:26.561Z,23.30
2022-11-06T18:36:56.642Z,23.30
2022-11-06T18:39:25.690Z,23.30
2022-11-06T18:41:54.445Z,23.30
2022-11-06T18:44:24.208Z,23.20
2022-11-06T18:46:53.028Z,23.20
2022-11-06T18:49:21.889Z,23.20
2022-11-06T18:51:50.643Z,23.20
2022-11-06T18:54:19.802Z,23.20
2022-11-06T18:56:48.459Z,23.20
2022-11-06T18:59:20.620Z,23.10
2022-11-06T19:01:49.738Z,23.10
2022-11-06T19:04:18.616Z,23.10
2022-11-06T19:06:47.440Z,23.10
2022-11-06T19:09:16.292Z,23.10
2022-11-06T19:11:45.259Z,23.10
2022-11-06T19:14:13.974Z,23.10
2022-11-06T19:16:42.896Z,23.00
2022-11-06T19:19:13.341Z,23.00
2022-11-06T19:21:47.128Z,23.00
2022-11-06T19:24:17.181Z,22.90
2022-11-06T19:26:45.875Z,22.90
2022-11-06T19:29:14.866Z,22.90
2022-11-06T19:31:44.049Z,22.90
2022-11-06T19:34:14.892Z,22.90
2022-11-06T19:36:43.636Z,22.80
2022-11-06T19:39:12.532Z,22.90
2022-11-06T19:41:41.279Z,22.90
2022-11-06T19:44:11.074Z,22.90
2022-11-06T19:46:40.177Z,22.90
2022-11-06T19:49:10.576Z,22.80
2022-11-06T19:51:39.715Z,22.80
2022-11-06T19:54:09.256Z,22.80
2022-11-06T19:57:26.908Z,22.70
2022-11-06T19:59:27.278Z,22.70
2022-11-06T20:01:56.125Z,22.70
2022-11-06T20:04:25.865Z,22.70
2022-11-06T20:06:54.604Z,22.70
2022-11-06T20:09:23.702Z,22.70
2022-11-06T20:11:54.114Z,22.70
2022-11-06T20:14:23.162Z,22.60
2022-11-06T20:16:52.723Z,22.70
2022-11-06T20:19:21.474Z,22.60
2022-11-06T20:21:50.377Z,22.60
2022-11-06T20:24:19.127Z,22.50
2022-11-06T20:26:48.126Z,22.50
2022-11-06T20:29:16.874Z,22.40
2022-11-06T20:31:45.649Z,22.40
2022-11-06T20:34:14.437Z,22.40
2022-11-06T20:36:43.175Z,22.40
2022-11-06T20:39:12.738Z,22.40
2022-11-06T20:41:42.353Z,22.40
2022-11-06T20:44:11.097Z,22.40
2022-11-06T20:46:47.446Z,22.40
2022-11-06T20:49:16.857Z,22.40
2022-11-06T20:52:12.057Z,22.40
2022-11-06T20:54:34.622Z,22.40
2022-11-06T20:57:03.637Z,22.40
2022-11-06T20:59:33.152Z,22.40
2022-11-06T21:02:02.135Z,22.40
2022-11-06T21:04:30.980Z,22.40
2022-11-06T21:07:00.206Z,22.40
2022-11-06T21:09:28.871Z,22.40
2022-11-06T21:11:58.253Z,22.40
2022-11-06T21:14:28.188Z,22.30
2022-11-06T21:16:57.583Z,22.30
2022-11-06T21:19:26.630Z,22.30
2022-11-06T21:21:57.857Z,22.30
2022-11-06T21:24:27.306Z,22.30
2022-11-06T21:26:56.969Z,22.30
2022-11-06T21:29:26.881Z,22.20
2022-11-06T21:31:55.910Z,22.20
2022-11-06T21:34:24.728Z,22.20
2022-11-06T21:36:56.930Z,22.20
2022-11-06T21:39:31.772Z,22.20
2022-11-06T21:42:05.799Z,22.20
2022-11-06T21:44:34.603Z,22.20
2022-11-06T21:47:03.350Z,22.20
2022-11-06T21:49:32.109Z,22.20
2022-11-06T21:52:23.974Z,22.20
2022-11-06T21:55:16.732Z,22.10
2022-11-06T21:57:46.612Z,22.10
2022-11-06T22:00:19.291Z,22.10
2022-11-06T22:02:48.858Z,22.10
2022-11-06T22:05:18.039Z,22.10
2022-11-06T22:07:46.751Z,22.10
2022-11-06T22:10:15.756Z,22.10
2022-11-06T22:12:44.500Z,22.00
2022-11-06T22:15:13.239Z,22.00
2022-11-06T22:17:42.073Z,22.10
2022-11-06T22:20:11.472Z,22.00
2022-11-06T22:22:40.217Z,22.00
2022-11-06T22:25:09.216Z,22.00
2022-11-06T22:27:40.923Z,21.90
2022-11-06T22:30:11.988Z,22.00
2022-11-06T22:32:41.755Z,21.90
2022-11-06T22:35:11.164Z,22.00
2022-11-06T22:37:40.467Z,21.90
2022-11-06T22:40:10.076Z,21.90
2022-11-06T22:42:38.810Z,21.90
2022-11-06T22:45:08.138Z,21.90
2022-11-06T22:47:37.366Z,21.90
2022-11-06T22:50:09.129Z,21.90
2022-11-06T22:52:37.868Z,21.90
2022-11-06T22:55:06.984Z,21.80
2022-11-06T22:57:36.011Z,21.80
2022-11-06T23:00:06.673Z,21.90
2022-11-06T23:02:36.245Z,21.80
2022-11-06T23:05:06.255Z,21.90
2022-11-06T23:07:35.048Z,21.80
2022-11-06T23:10:03.812Z,21.90
2022-11-06T23:12:32.817Z,21.80
2022-11-06T23:15:01.599Z,21.80
2022-11-06T23:17:30.389Z,21.80
2022-11-06T23:19:59.098Z,21.80
2022-11-06T23:22:43.175Z,21.80
2022-11-06T23:25:13.273Z,21.80
2022-11-06T23:27:49.479Z,21.80
2022-11-06T23:30:19.418Z,21.80
2022-11-06T23:32:49.209Z,21.80
2022-11-06T23:35:19.549Z,21.80
2022-11-06T23:37:51.107Z,21.80
2022-11-06T23:40:19.918Z,21.80
2022-11-06T23:42:55.567Z,21.80
2022-11-06T23:45:44.032Z,21.70
2022-11-06T23:48:14.302Z,21.70
2022-11-06T23:50:48.350Z,21.70
2022-11-06T23:53:18.294Z,21.70
2022-11-06T23:55:47.081Z,21.70
2022-11-06T23:58:15.851Z,21.70
